Time;durP1;ratioP1;P1;durP2;ratioP2;P2;SDS_P1;SDS_P2;PMS_P1;PMS_P2;Temp;Humidity;BMP_temperature;BMP_pressure;BME280_temperature;BME280_humidity;BME280_pressure;Samples;Min_cycle;Max_cycle;Signal;HPM_P1;HPM_P2
2023/09/04 00:00:41;;;;;;;4.90;4.10;;;;;;;14.02;81.13;99769.55;225930;1278;22561;-74
2023/09/04 00:05:43;;;;;;;5.50;4.80;;;;;;;13.94;81.48;99774.11;225933;1280;22540;-73
2023/09/04 00:10:45;;;;;;;6.70;5.00;;;;;;;13.88;81.81;99770.35;225714;1280;22539;-73
2023/09/04 00:15:47;;;;;;;5.00;4.50;;;;;;;13.86;81.99;99762.91;225927;1279;25246;-74
2023/09/04 00:20:51;;;;;;;5.60;4.20;;;;;;;13.84;82.05;99761.83;225857;1280;22551;-74
2023/09/04 00:25:54;;;;;;;5.50;4.80;;;;;;;13.86;82.34;99759.69;225785;1279;22567;-74
2023/09/04 00:30:57;;;;;;;5.40;4.90;;;;;;;13.86;82.52;99759.16;225861;1278;22544;-73
2023/09/04 00:36:00;;;;;;;5.40;4.40;;;;;;;13.85;82.47;99770.89;225965;1281;22555;-73
2023/09/04 00:41:02;;;;;;;5.30;4.80;;;;;;;13.86;82.74;99780.70;225957;1280;22534;-73
2023/09/04 00:46:06;;;;;;;5.00;4.60;;;;;;;13.89;82.83;99777.73;225780;1278;22557;-73
2023/09/04 00:51:08;;;;;;;5.70;5.00;;;;;;;13.91;82.93;99780.41;225786;1281;22540;-73
2023/09/04 00:56:13;;;;;;;5.10;4.60;;;;;;;13.94;82.84;99788.17;225916;1280;22644;-74
2023/09/04 01:01:14;;;;;;;5.00;4.40;;;;;;;13.97;83.21;99800.42;225886;1281;24472;-73
2023/09/04 01:06:16;;;;;;;6.00;4.90;;;;;;;14.01;83.07;99807.22;225774;1281;22553;-73
2023/09/04 01:11:30;;;;;;;5.50;4.70;;;;;;;14.06;83.23;99811.77;225701;1281;22545;-73
2023/09/04 01:16:32;;;;;;;4.90;4.40;;;;;;;14.10;83.21;99803.33;225883;1281;22651;-73
2023/09/04 01:21:37;;;;;;;4.90;4.20;;;;;;;14.13;83.18;99808.40;225853;1281;22571;-73
2023/09/04 01:26:55;;;;;;;6.50;4.30;;;;;;;14.17;83.08;99816.70;225799;1278;22583;-74
2023/09/04 01:32:25;;;;;;;5.00;4.10;;;;;;;14.20;83.07;99813.60;225837;1280;22551;-74
2023/09/04 01:37:29;;;;;;;5.30;3.80;;;;;;;14.23;83.09;99806.40;225623;1281;369666;-74
2023/09/04 01:42:31;;;;;;;5.20;3.50;;;;;;;14.23;82.82;99812.70;225851;1278;24234;-74
2023/09/04 01:47:33;;;;;;;3.70;3.30;;;;;;;14.24;82.84;99810.46;225791;1280;22594;-74
2023/09/04 01:52:35;;;;;;;4.80;3.30;;;;;;;14.25;82.57;99813.23;225823;1280;24213;-73
2023/09/04 01:57:36;;;;;;;6.30;3.50;;;;;;;14.25;82.33;99820.48;225873;1281;22549;-74
2023/09/04 02:02:38;;;;;;;4.10;3.10;;;;;;;14.24;82.23;99816.96;225859;1280;22566;-73
2023/09/04 02:07:40;;;;;;;4.30;2.80;;;;;;;14.25;82.17;99820.07;225852;1280;22540;-73
2023/09/04 02:12:43;;;;;;;5.40;3.00;;;;;;;14.22;82.09;99818.70;225866;1273;22534;-74
2023/09/04 02:17:45;;;;;;;3.90;3.10;;;;;;;14.18;82.06;99809.85;225784;1280;22540;-74
2023/09/04 02:22:47;;;;;;;3.90;3.10;;;;;;;14.11;81.83;99815.16;225763;1277;22548;-74
2023/09/04 02:27:49;;;;;;;4.70;3.10;;;;;;;14.05;81.88;99815.83;225672;1280;22540;-74
2023/09/04 02:32:51;;;;;;;4.20;3.20;;;;;;;13.96;82.07;99815.23;225790;1280;22606;-74
2023/09/04 02:37:53;;;;;;;4.20;3.20;;;;;;;13.87;82.00;99815.70;225903;1280;22546;-74
2023/09/04 02:42:55;;;;;;;4.70;3.10;;;;;;;13.74;81.94;99811.03;225855;1281;22567;-74
2023/09/04 02:47:56;;;;;;;3.70;3.10;;;;;;;13.63;82.10;99820.02;225929;1281;22586;-74
2023/09/04 02:52:58;;;;;;;5.10;3.40;;;;;;;13.53;82.15;99822.27;225826;1281;22549;-74
2023/09/04 02:58:00;;;;;;;3.60;3.30;;;;;;;13.45;82.57;99824.94;225856;1277;23020;-73
2023/09/04 03:03:03;;;;;;;5.00;3.40;;;;;;;13.41;82.75;99827.69;225781;1280;22544;-74
2023/09/04 03:08:06;;;;;;;4.70;3.10;;;;;;;13.36;82.89;99824.31;225792;1277;22546;-74
2023/09/04 03:13:08;;;;;;;6.70;3.60;;;;;;;13.31;82.84;99825.50;225825;1277;22571;-74
2023/09/04 03:18:10;;;;;;;4.20;3.50;;;;;;;13.27;83.06;99827.59;225873;1280;22537;-74
2023/09/04 03:23:12;;;;;;;3.90;3.50;;;;;;;13.24;83.09;99822.80;225846;1276;23069;-74
2023/09/04 03:28:16;;;;;;;6.70;3.50;;;;;;;13.22;83.39;99812.79;225808;1280;22563;-74
2023/09/04 03:33:18;;;;;;;4.50;3.70;;;;;;;13.20;83.29;99826.87;225830;1280;24411;-74
2023/09/04 03:38:20;;;;;;;6.90;3.60;;;;;;;13.18;83.45;99832.63;225783;1280;22689;-74
2023/09/04 03:43:22;;;;;;;6.20;3.70;;;;;;;13.17;83.47;99831.94;225858;1276;22549;-74
2023/09/04 03:48:27;;;;;;;5.00;3.90;;;;;;;13.17;83.56;99831.44;225803;1276;24854;-73
2023/09/04 03:53:30;;;;;;;5.60;3.70;;;;;;;13.19;83.68;99838.98;225856;1280;22577;-73
2023/09/04 03:58:32;;;;;;;4.90;3.90;;;;;;;13.21;84.02;99844.52;225779;1280;22603;-73
2023/09/04 04:03:34;;;;;;;6.20;3.80;;;;;;;13.23;83.88;99846.75;225743;1277;22536;-73
2023/09/04 04:08:36;;;;;;;4.20;3.90;;;;;;;13.26;83.97;99847.94;225856;1274;25994;-73
2023/09/04 04:13:39;;;;;;;4.70;3.70;;;;;;;13.27;84.11;99848.52;225822;1276;22690;-73
2023/09/04 04:18:44;;;;;;;6.50;4.20;;;;;;;13.27;83.95;99857.52;225884;1276;22606;-73
2023/09/04 04:23:46;;;;;;;5.30;3.90;;;;;;;13.25;83.93;99869.77;225922;1280;24231;-73
2023/09/04 04:28:48;;;;;;;6.40;4.70;;;;;;;13.23;84.21;99886.43;225866;1280;22533;-73
2023/09/04 04:33:51;;;;;;;5.50;4.10;;;;;;;13.22;84.09;99895.47;225882;1277;22551;-73
2023/09/04 04:38:53;;;;;;;6.60;4.00;;;;;;;13.22;84.30;99903.02;225732;1277;22746;-73
2023/09/04 04:43:55;;;;;;;6.60;4.20;;;;;;;13.23;84.21;99899.34;225790;1277;22544;-73
2023/09/04 04:48:57;;;;;;;4.40;4.00;;;;;;;13.26;84.27;99895.08;225787;1279;25433;-74
2023/09/04 04:53:59;;;;;;;5.20;3.70;;;;;;;13.36;84.35;99898.55;225680;1280;22553;-73
2023/09/04 04:59:01;;;;;;;5.60;4.10;;;;;;;13.50;84.33;99904.34;225869;1276;22547;-74
2023/09/04 05:04:03;;;;;;;5.10;3.80;;;;;;;13.70;84.41;99913.50;225892;1280;22541;-73
2023/09/04 05:09:07;;;;;;;4.10;3.60;;;;;;;13.91;84.40;99910.95;225819;1273;22534;-73
2023/09/04 05:14:09;;;;;;;5.10;3.90;;;;;;;14.12;84.38;99912.05;225806;1278;25421;-73
2023/09/04 05:19:12;;;;;;;7.10;4.00;;;;;;;14.32;84.14;99912.20;225821;1262;22567;-73
2023/09/04 05:24:14;;;;;;;4.60;3.50;;;;;;;14.50;83.93;99913.45;225830;1280;22559;-73
2023/09/04 05:29:16;;;;;;;3.30;2.90;;;;;;;14.65;83.40;99917.27;225826;1274;24543;-74
2023/09/04 05:34:19;;;;;;;5.70;2.90;;;;;;;14.79;83.09;99922.23;225887;1277;23087;-74
2023/09/04 05:39:20;;;;;;;6.20;2.90;;;;;;;14.93;82.90;99923.73;225870;1279;22991;-74
2023/09/04 05:44:22;;;;;;;3.20;2.60;;;;;;;15.09;82.73;99930.47;225894;1276;22563;-74
2023/09/04 05:49:24;;;;;;;5.10;3.20;;;;;;;15.29;82.51;99930.21;225838;1276;22569;-73
2023/09/04 05:54:26;;;;;;;5.40;3.40;;;;;;;15.51;82.04;99924.73;225417;1262;25346;-74
2023/09/04 05:59:28;;;;;;;10.90;3.50;;;;;;;15.78;81.48;99921.98;225465;1273;22536;-76
2023/09/04 06:04:30;;;;;;;5.10;2.60;;;;;;;16.01;80.86;99926.27;225439;1276;22540;-74
2023/09/04 06:09:32;;;;;;;3.60;2.70;;;;;;;16.15;80.32;99929.06;225486;1273;22564;-73
2023/09/04 06:14:34;;;;;;;4.40;2.30;;;;;;;16.30;80.09;99916.33;225139;1257;22555;-74
2023/09/04 06:19:36;;;;;;;4.30;2.50;;;;;;;16.36;79.71;99913.20;225447;1263;22537;-74
2023/09/04 06:24:39;;;;;;;6.40;2.90;;;;;;;16.39;79.21;99920.73;225453;1273;22596;-75
2023/09/04 06:29:41;;;;;;;3.20;2.20;;;;;;;16.38;78.96;99925.11;225256;1266;22535;-75
2023/09/04 06:34:42;;;;;;;6.20;2.40;;;;;;;16.34;78.87;99923.65;225339;1265;22532;-75
2023/09/04 06:39:44;;;;;;;6.40;2.50;;;;;;;16.32;78.73;99931.66;225512;1257;22543;-76
2023/09/04 06:44:46;;;;;;;4.70;2.50;;;;;;;16.26;78.08;99930.02;225358;1275;24294;-75
2023/09/04 06:49:48;;;;;;;3.90;2.40;;;;;;;16.20;78.17;99924.89;225494;1277;22553;-74
2023/09/04 06:54:50;;;;;;;3.70;2.20;;;;;;;16.25;78.40;99926.73;225548;1268;22664;-74
2023/09/04 06:59:52;;;;;;;3.30;2.00;;;;;;;16.45;78.24;99931.64;225474;1272;22548;-74
2023/09/04 07:04:54;;;;;;;2.60;2.00;;;;;;;16.68;77.92;99934.53;225468;1262;22631;-74
2023/09/04 07:09:56;;;;;;;3.20;2.20;;;;;;;16.91;77.62;99938.81;225535;1262;23070;-74
2023/09/04 07:15:12;;;;;;;5.10;3.80;;;;;;;17.13;77.14;99949.11;225389;1259;25393;-75
2023/09/04 07:20:35;;;;;;;13.90;7.90;;;;;;;17.44;77.03;99965.48;225295;1258;23612;-75
2023/09/04 07:25:36;;;;;;;4.20;2.10;;;;;;;17.73;76.57;99975.16;225173;1265;22670;-74
2023/09/04 07:30:38;;;;;;;6.20;2.80;;;;;;;18.05;76.35;99973.85;225112;1273;22932;-75
2023/09/04 07:35:40;;;;;;;5.40;3.50;;;;;;;18.31;75.87;99973.94;225167;1272;22546;-75
2023/09/04 07:40:42;;;;;;;6.10;3.00;;;;;;;18.43;74.76;99969.13;224773;1257;22554;-75
2023/09/04 07:45:44;;;;;;;5.00;1.90;;;;;;;18.51;74.69;99972.88;225142;1261;22551;-75
2023/09/04 07:50:46;;;;;;;3.90;2.00;;;;;;;18.47;74.02;99983.33;225249;1259;22551;-74
2023/09/04 07:55:51;;;;;;;3.10;2.40;;;;;;;18.43;73.76;99984.21;225521;1262;22536;-75
2023/09/04 08:00:56;;;;;;;6.60;2.40;;;;;;;18.52;73.33;99995.18;225505;1273;22571;-74
2023/09/04 08:06:00;;;;;;;5.20;2.10;;;;;;;18.69;73.57;99989.04;225573;1275;22924;-79
2023/09/04 08:11:04;;;;;;;22.50;6.10;;;;;;;18.79;72.94;99984.97;225669;1274;24173;-79
2023/09/04 08:16:07;;;;;;;5.90;2.20;;;;;;;18.85;72.59;99979.09;225598;1278;22551;-79
2023/09/04 08:21:13;;;;;;;5.30;1.60;;;;;;;18.95;72.36;99981.27;225512;1275;25329;-78
2023/09/04 08:26:17;;;;;;;3.80;1.40;;;;;;;19.04;71.66;99989.48;225529;1273;23261;-78
2023/09/04 08:31:19;;;;;;;3.50;1.50;;;;;;;19.17;71.15;99989.20;225442;1280;23271;-79
2023/09/04 08:36:22;;;;;;;2.40;1.70;;;;;;;19.36;70.71;99988.70;225583;1257;23328;-79
2023/09/04 08:41:27;;;;;;;3.60;2.30;;;;;;;19.59;70.44;99981.77;225633;1274;22536;-79
2023/09/04 08:46:30;;;;;;;3.60;2.30;;;;;;;19.86;70.25;99980.20;225560;1273;22544;-79
2023/09/04 08:51:33;;;;;;;2.50;1.60;;;;;;;19.98;69.20;99978.66;225689;1266;22553;-79
2023/09/04 08:56:37;;;;;;;5.70;2.10;;;;;;;19.99;69.14;99976.76;225600;1273;22578;-79
2023/09/04 09:01:40;;;;;;;3.90;2.10;;;;;;;19.96;68.45;99980.73;225590;1259;22536;-77
2023/09/04 09:06:44;;;;;;;3.00;1.70;;;;;;;19.76;67.88;99984.08;225559;1276;22537;-79
2023/09/04 09:11:53;;;;;;;2.80;1.50;;;;;;;19.51;67.69;99981.93;225535;1272;22594;-80
2023/09/04 09:17:07;;;;;;;13.20;10.20;;;;;;;19.50;67.69;99986.07;225564;1276;25147;-79
2023/09/04 09:22:18;;;;;;;3.20;2.40;;;;;;;19.38;67.74;99993.76;225676;1272;22555;-79
2023/09/04 09:27:26;;;;;;;3.40;1.70;;;;;;;19.46;67.33;99989.50;225634;1275;22570;-79
2023/09/04 09:32:33;;;;;;;3.10;1.70;;;;;;;19.67;67.25;99984.19;225747;1278;22536;-77
2023/09/04 09:37:38;;;;;;;2.50;1.70;;;;;;;19.93;67.05;99982.78;225789;1272;24474;-78
2023/09/04 09:42:43;;;;;;;3.50;1.70;;;;;;;19.93;66.37;99973.45;225867;1273;22563;-74
2023/09/04 09:47:45;;;;;;;3.10;1.60;;;;;;;19.90;66.36;99976.03;225779;1260;22536;-75
2023/09/04 09:52:58;;;;;;;2.70;1.60;;;;;;;19.85;66.07;99971.48;225923;1276;22511;-76
2023/09/04 09:58:01;;;;;;;2.90;1.80;;;;;;;19.79;65.83;99970.97;225819;1275;22591;-76
2023/09/04 10:03:04;;;;;;;3.70;1.80;;;;;;;19.61;65.92;99968.29;225856;1256;22544;-75
2023/09/04 10:08:08;;;;;;;2.60;1.90;;;;;;;19.63;66.20;99962.84;225444;1275;22552;-76
2023/09/04 10:13:19;;;;;;;2.30;1.80;;;;;;;19.82;66.17;99950.94;225496;1274;22578;-78
2023/09/04 10:18:30;;;;;;;1.90;1.60;;;;;;;20.03;66.13;99949.27;225492;1268;22519;-75
2023/09/04 10:23:38;;;;;;;3.10;1.80;;;;;;;20.29;65.28;99954.67;225409;1280;22575;-76
2023/09/04 10:28:46;;;;;;;3.50;1.90;;;;;;;20.37;64.55;99955.06;225448;1273;22651;-76
2023/09/04 10:33:49;;;;;;;4.90;2.30;;;;;;;20.37;64.39;99956.88;225664;1278;26020;-76
2023/09/04 10:38:50;;;;;;;2.10;1.70;;;;;;;20.19;63.85;99958.49;225616;1272;22541;-75
2023/09/04 10:43:52;;;;;;;2.60;1.90;;;;;;;20.24;64.36;99943.15;225664;1268;22540;-79
2023/09/04 10:48:54;;;;;;;3.90;2.00;;;;;;;20.47;64.26;99938.94;225792;1275;22569;-79
2023/09/04 10:53:59;;;;;;;3.30;2.20;;;;;;;20.71;63.52;99931.95;225503;1273;22555;-77
2023/09/04 10:59:02;;;;;;;4.10;1.70;;;;;;;20.64;62.75;99929.48;225456;1275;22878;-77
2023/09/04 11:04:08;;;;;;;3.40;2.00;;;;;;;20.42;62.82;99925.14;225317;1275;25227;-77
2023/09/04 11:09:11;;;;;;;3.00;2.30;;;;;;;20.35;62.69;99932.63;225569;1279;22569;-77
2023/09/04 11:14:13;;;;;;;4.20;1.80;;;;;;;20.46;62.80;99928.86;225521;1280;22536;-76
2023/09/04 11:19:18;;;;;;;2.10;1.90;;;;;;;20.60;62.44;99933.84;225392;1275;22564;-76
2023/09/04 11:24:22;;;;;;;2.90;2.10;;;;;;;20.67;62.23;99929.73;225705;1274;25394;-76
2023/09/04 11:29:26;;;;;;;2.10;1.60;;;;;;;20.98;61.96;99928.02;225591;1268;25558;-77
2023/09/04 11:34:28;;;;;;;2.30;2.10;;;;;;;21.31;61.26;99931.23;225614;1275;22555;-77
2023/09/04 11:39:31;;;;;;;3.40;2.00;;;;;;;21.36;60.54;99924.77;225610;1268;22583;-77
2023/09/04 11:44:33;;;;;;;2.70;2.00;;;;;;;21.21;60.62;99923.11;225729;1260;22552;-77
2023/09/04 11:49:34;;;;;;;6.90;4.00;;;;;;;21.12;60.79;99918.83;225787;1272;22561;-77
2023/09/04 11:54:36;;;;;;;2.90;2.20;;;;;;;21.16;60.57;99913.55;225597;1264;22540;-76
2023/09/04 11:59:40;;;;;;;14.50;10.10;;;;;;;21.24;60.71;99919.60;225306;1280;22549;-76
2023/09/04 12:04:42;;;;;;;5.10;2.10;;;;;;;21.47;60.79;99920.83;225391;1259;22541;-78
2023/09/04 12:09:45;;;;;;;4.20;2.00;;;;;;;21.64;59.97;99920.82;225608;1275;22587;-79
2023/09/04 12:14:47;;;;;;;3.00;2.00;;;;;;;21.38;59.22;99922.70;225700;1278;22549;-79
2023/09/04 12:19:49;;;;;;;4.60;2.10;;;;;;;21.18;59.73;99916.67;225699;1275;22547;-75
2023/09/04 12:25:05;;;;;;;2.60;2.20;;;;;;;21.21;59.75;99907.45;225413;1269;22559;-76
2023/09/04 12:30:10;;;;;;;3.20;2.70;;;;;;;21.32;59.21;99912.67;225710;1265;22596;-74
2023/09/04 12:35:12;;;;;;;4.60;2.30;;;;;;;21.39;59.08;99913.30;225541;1275;22556;-74
2023/09/04 12:40:14;;;;;;;2.20;2.00;;;;;;;21.43;58.85;99902.28;225112;1273;22563;-75
2023/09/04 12:45:16;;;;;;;5.90;2.10;;;;;;;21.46;58.19;99901.66;225422;1277;22516;-75
2023/09/04 12:50:18;;;;;;;5.90;3.50;;;;;;;21.50;58.44;99895.68;225396;1269;24974;-74
2023/09/04 12:55:21;;;;;;;4.20;2.30;;;;;;;21.51;58.48;99888.92;225365;1274;25228;-74
2023/09/04 13:00:23;;;;;;;6.00;2.70;;;;;;;21.43;58.55;99889.00;225493;1273;24330;-78
2023/09/04 13:05:25;;;;;;;3.60;2.00;;;;;;;21.35;58.84;99882.46;225348;1272;24975;-73
2023/09/04 13:10:27;;;;;;;6.20;2.70;;;;;;;21.39;58.88;99879.75;225163;1269;26297;-73
2023/09/04 13:15:29;;;;;;;2.70;2.00;;;;;;;21.45;58.48;99877.88;225315;1266;22547;-73
2023/09/04 13:20:31;;;;;;;4.20;2.90;;;;;;;21.53;58.41;99878.48;225278;1275;22535;-73
2023/09/04 13:25:33;;;;;;;5.00;2.40;;;;;;;21.63;58.25;99875.81;225575;1260;22566;-74
2023/09/04 13:30:35;;;;;;;6.20;2.50;;;;;;;21.69;57.79;99871.05;225665;1276;22605;-76
2023/09/04 13:35:37;;;;;;;3.80;2.30;;;;;;;21.71;57.75;99871.11;225471;1276;186114;-73
2023/09/04 13:40:39;;;;;;;2.40;2.20;;;;;;;21.78;57.57;99870.44;225594;1278;24896;-73
2023/09/04 13:45:41;;;;;;;3.10;2.20;;;;;;;21.85;57.16;99864.77;225548;1275;24195;-73
2023/09/04 13:50:43;;;;;;;3.30;2.40;;;;;;;21.85;56.97;99856.85;225410;1256;24540;-74
2023/09/04 13:55:47;;;;;;;4.40;2.70;;;;;;;21.90;57.06;99850.08;225652;1273;22550;-74
2023/09/04 14:00:49;;;;;;;2.60;2.00;;;;;;;21.93;57.11;99840.73;225359;1268;22528;-74
2023/09/04 14:05:51;;;;;;;3.20;2.30;;;;;;;21.96;57.16;99842.73;225558;1278;22531;-74
2023/09/04 14:10:53;;;;;;;2.30;1.90;;;;;;;21.99;56.92;99844.32;225601;1272;22536;-74
2023/09/04 14:15:56;;;;;;;3.20;2.10;;;;;;;21.99;56.63;99843.15;225239;1277;22642;-75
2023/09/04 14:21:01;;;;;;;5.10;2.50;;;;;;;21.96;56.63;99842.40;225127;1268;22574;-74
2023/09/04 14:26:05;;;;;;;5.20;2.30;;;;;;;21.93;56.51;99841.80;225259;1277;22547;-74
2023/09/04 14:31:14;;;;;;;2.60;2.00;;;;;;;21.91;56.62;99843.64;225820;1280;22545;-74
2023/09/04 14:36:16;;;;;;;4.80;2.40;;;;;;;21.88;56.80;99843.73;225955;1278;22539;-75
2023/09/04 14:41:22;;;;;;;2.90;2.10;;;;;;;21.90;56.75;99843.29;225967;1277;22687;-74
2023/09/04 14:46:24;;;;;;;3.50;2.20;;;;;;;21.70;56.14;99850.17;225934;1278;22544;-75
2023/09/04 14:51:26;;;;;;;2.30;2.10;;;;;;;21.59;56.57;99851.74;225944;1277;23215;-75
2023/09/04 14:56:28;;;;;;;3.00;2.10;;;;;;;21.59;56.93;99850.13;225948;1276;22579;-75
2023/09/04 15:01:30;;;;;;;2.10;2.00;;;;;;;21.62;57.30;99852.52;226109;1278;22560;-76
2023/09/04 15:06:33;;;;;;;3.70;2.00;;;;;;;21.53;57.12;99852.55;225895;1275;22631;-74
2023/09/04 15:11:34;;;;;;;2.30;2.10;;;;;;;21.35;57.34;99848.58;226154;1276;22547;-74
2023/09/04 15:16:37;;;;;;;4.20;2.40;;;;;;;21.23;57.82;99846.83;226079;1278;22531;-74
2023/09/04 15:21:39;;;;;;;2.60;1.90;;;;;;;21.28;58.39;99841.30;225890;1278;25285;-74
2023/09/04 15:26:41;;;;;;;2.40;2.20;;;;;;;21.26;58.34;99842.70;225955;1279;22541;-74
2023/09/04 15:31:43;;;;;;;3.00;2.00;;;;;;;21.25;58.66;99840.35;225885;1280;22638;-74
2023/09/04 15:36:45;;;;;;;2.50;2.00;;;;;;;21.24;58.24;99842.02;225890;1279;22584;-75
2023/09/04 15:41:47;;;;;;;2.90;2.20;;;;;;;21.15;57.96;99840.58;226189;1278;22556;-75
2023/09/04 15:46:49;;;;;;;3.80;2.10;;;;;;;20.99;58.23;99843.99;225951;1280;22585;-75
2023/09/04 15:51:51;;;;;;;3.10;2.10;;;;;;;20.95;58.61;99848.64;225886;1280;22558;-76
2023/09/04 15:56:53;;;;;;;2.50;1.90;;;;;;;20.89;58.98;99844.61;226226;1275;22547;-74
2023/09/04 16:01:55;;;;;;;3.30;2.10;;;;;;;20.77;58.89;99843.41;226237;1280;22585;-74
2023/09/04 16:06:57;;;;;;;3.50;2.00;;;;;;;20.64;59.06;99842.46;226124;1278;22568;-75
2023/09/04 16:11:59;;;;;;;3.70;2.20;;;;;;;20.55;59.39;99842.91;225928;1257;25469;-74
2023/09/04 16:17:01;;;;;;;3.90;2.30;;;;;;;20.48;59.64;99840.77;226129;1276;22558;-74
2023/09/04 16:22:03;;;;;;;3.40;2.20;;;;;;;20.40;59.86;99835.35;225966;1278;25264;-74
2023/09/04 16:27:06;;;;;;;3.10;1.80;;;;;;;20.31;60.16;99831.75;225898;1278;22819;-74
2023/09/04 16:32:08;;;;;;;3.20;2.20;;;;;;;20.18;60.00;99828.56;226202;1280;22567;-74
2023/09/04 16:37:09;;;;;;;3.30;2.60;;;;;;;20.05;60.26;99833.45;225946;1280;22560;-76
2023/09/04 16:42:13;;;;;;;3.60;2.60;;;;;;;19.93;60.46;99839.73;226176;1276;22543;-74
2023/09/04 16:47:15;;;;;;;3.60;2.10;;;;;;;19.76;60.84;99844.86;226034;1278;22535;-74
2023/09/04 16:52:17;;;;;;;4.20;2.40;;;;;;;19.60;61.04;99852.11;226173;1278;22731;-74
2023/09/04 16:57:19;;;;;;;3.80;2.70;;;;;;;19.45;61.43;99857.70;225935;1266;22554;-74
2023/09/04 17:02:21;;;;;;;2.10;1.90;;;;;;;19.29;61.63;99860.83;226160;1276;22574;-74
2023/09/04 17:07:23;;;;;;;5.60;2.60;;;;;;;19.14;62.21;99861.19;226180;1275;22544;-74
2023/09/04 17:12:25;;;;;;;4.90;3.00;;;;;;;19.01;62.45;99867.42;225961;1278;22972;-74
2023/09/04 17:17:27;;;;;;;4.60;2.50;;;;;;;18.85;62.79;99869.45;225987;1278;22546;-74
2023/09/04 17:22:29;;;;;;;4.20;2.40;;;;;;;18.70;63.09;99870.90;226031;1280;27179;-74
2023/09/04 17:27:31;;;;;;;4.10;2.60;;;;;;;18.53;63.48;99864.98;225921;1279;22536;-74
2023/09/04 17:32:33;;;;;;;4.70;3.00;;;;;;;18.37;63.71;99865.94;226142;1276;22546;-75
2023/09/04 17:37:35;;;;;;;4.90;3.10;;;;;;;18.23;64.10;99873.54;226198;1278;22558;-75
2023/09/04 17:42:36;;;;;;;4.50;2.60;;;;;;;18.09;64.67;99877.96;226176;1278;25385;-75
2023/09/04 17:47:38;;;;;;;4.40;2.70;;;;;;;17.94;64.85;99877.91;226190;1278;22578;-75
2023/09/04 17:52:40;;;;;;;3.70;2.90;;;;;;;17.82;65.36;99879.63;225960;1278;25898;-75
2023/09/04 17:57:43;;;;;;;3.40;2.70;;;;;;;17.71;65.78;99881.48;225989;1278;22545;-75
2023/09/04 18:02:45;;;;;;;4.50;3.30;;;;;;;17.60;66.08;99881.88;225989;1278;22570;-75
2023/09/04 18:07:48;;;;;;;4.30;2.60;;;;;;;17.49;66.51;99887.96;225939;1278;22805;-75
2023/09/04 18:12:50;;;;;;;3.20;2.70;;;;;;;17.41;66.53;99887.49;226053;1279;26000;-75
2023/09/04 18:17:51;;;;;;;3.70;2.80;;;;;;;17.33;66.91;99888.09;226159;1278;23288;-75
2023/09/04 18:22:53;;;;;;;4.50;2.80;;;;;;;17.24;67.08;99885.92;226164;1256;22544;-75
2023/09/04 18:27:55;;;;;;;6.10;3.50;;;;;;;17.16;67.42;99885.10;225973;1278;24145;-75
2023/09/04 18:32:57;;;;;;;3.80;3.40;;;;;;;17.09;67.77;99894.81;225869;1280;22770;-75
2023/09/04 18:37:59;;;;;;;4.30;3.20;;;;;;;17.01;67.79;99889.06;225950;1278;22553;-75
2023/09/04 18:43:01;;;;;;;4.40;3.40;;;;;;;16.94;68.32;99888.58;225939;1280;22547;-75
2023/09/04 18:48:03;;;;;;;7.70;4.10;;;;;;;16.87;68.46;99889.11;226152;1279;22547;-76
2023/09/04 18:53:06;;;;;;;4.30;3.10;;;;;;;16.80;68.68;99895.77;226133;1280;22545;-75
2023/09/04 18:58:09;;;;;;;5.70;3.40;;;;;;;16.76;69.05;99892.31;226152;1278;22546;-75
2023/09/04 19:03:11;;;;;;;4.30;3.60;;;;;;;16.72;69.23;99900.89;226154;1280;22536;-75
2023/09/04 19:08:13;;;;;;;4.10;3.50;;;;;;;16.64;69.35;99901.41;225991;1278;22544;-76
2023/09/04 19:13:14;;;;;;;5.10;3.70;;;;;;;16.59;69.67;99903.31;225968;1280;25558;-74
2023/09/04 19:18:16;;;;;;;6.00;3.60;;;;;;;16.52;69.61;99910.86;226206;1276;22572;-74
2023/09/04 19:23:18;;;;;;;5.30;4.20;;;;;;;16.43;69.73;99913.42;226202;1276;25284;-75
2023/09/04 19:28:20;;;;;;;5.60;4.40;;;;;;;16.37;70.14;99914.31;225909;1278;22544;-74
2023/09/04 19:33:23;;;;;;;6.40;4.80;;;;;;;16.32;70.26;99913.97;226210;1280;22574;-74
2023/09/04 19:38:25;;;;;;;7.50;4.90;;;;;;;16.17;70.43;99908.35;225920;1280;22577;-74
2023/09/04 19:43:27;;;;;;;5.50;3.70;;;;;;;16.02;70.95;99906.77;225997;1280;22569;-75
2023/09/04 19:48:29;;;;;;;6.10;4.70;;;;;;;15.83;71.30;99908.48;225929;1278;22563;-74
2023/09/04 19:53:31;;;;;;;9.60;6.00;;;;;;;15.66;71.73;99905.90;225949;1278;22548;-75
2023/09/04 19:58:33;;;;;;;10.00;5.90;;;;;;;15.50;71.98;99906.80;225929;1280;22558;-75
2023/09/04 20:03:36;;;;;;;8.00;6.30;;;;;;;15.36;72.27;99916.52;226189;1278;22552;-75
2023/09/04 20:08:40;;;;;;;10.10;6.50;;;;;;;15.23;72.65;99921.06;225968;1280;22591;-74
2023/09/04 20:13:46;;;;;;;9.90;6.50;;;;;;;15.10;73.00;99922.82;225914;1279;22653;-75
2023/09/04 20:18:48;;;;;;;9.00;6.30;;;;;;;14.99;73.48;99923.63;225973;1258;25386;-76
2023/09/04 20:23:55;;;;;;;10.20;6.20;;;;;;;14.90;73.62;99928.32;225938;1278;22560;-75
2023/09/04 20:28:57;;;;;;;10.30;6.10;;;;;;;14.80;74.02;99930.92;226176;1276;22556;-75
2023/09/04 20:33:59;;;;;;;8.80;5.70;;;;;;;14.68;74.54;99932.37;225963;1280;22548;-75
2023/09/04 20:39:01;;;;;;;9.30;5.90;;;;;;;14.58;74.55;99941.48;225982;1279;22550;-75
2023/09/04 20:44:03;;;;;;;10.00;6.30;;;;;;;14.48;75.00;99939.97;226150;1276;25382;-75
2023/09/04 20:49:05;;;;;;;9.80;6.60;;;;;;;14.39;75.57;99943.84;226120;1272;22592;-75
2023/09/04 20:54:07;;;;;;;11.30;7.60;;;;;;;14.31;75.55;99941.66;226180;1276;22543;-75
2023/09/04 20:59:09;;;;;;;9.60;6.90;;;;;;;14.24;75.86;99941.41;226073;1280;22554;-75
2023/09/04 21:04:11;;;;;;;11.60;6.90;;;;;;;14.19;76.00;99941.63;226170;1276;22554;-75
2023/09/04 23:22:46;;;;;;;17.50;9.70;;;;;;;12.55;81.49;99922.50;226074;1280;22547;-74
2023/09/04 23:27:50;;;;;;;14.70;9.30;;;;;;;12.51;81.56;99922.98;225907;1279;24406;-75
2023/09/04 23:33:05;;;;;;;14.00;10.10;;;;;;;12.46;81.68;99926.78;225951;1273;25297;-74
2023/09/04 23:38:18;;;;;;;15.70;10.50;;;;;;;12.40;81.74;99930.41;225943;1280;25291;-74
2023/09/04 23:48:42;;;;;;;14.80;10.00;;;;;;;12.31;82.18;99919.42;226102;1274;22556;-74
2023/09/04 23:53:48;;;;;;;14.10;9.80;;;;;;;12.26;82.31;99918.52;226075;1278;22556;-74
2023/09/04 23:58:50;;;;;;;15.30;10.50;;;;;;;12.24;82.65;99919.34;226023;1277;22548;-74
